Time;durP1;ratioP1;P1;durP2;ratioP2;P2;SDS_P1;SDS_P2;PMS_P1;PMS_P2;Temp;Humidity;BMP_temperature;BMP_pressure;BME280_temperature;BME280_humidity;BME280_pressure;Samples;Min_cycle;Max_cycle;Signal;HPM_P1;HPM_P2
2021/04/13 00:01:12;;;;;;;4.60;3.13;;;5.90;64.90;;;;;;5030251;28;20094;-85
2021/04/13 00:03:53;;;;;;;5.33;3.30;;;5.90;65.00;;;;;;5022438;28;20049;-85
2021/04/13 00:06:49;;;;;;;6.07;3.80;;;5.90;64.90;;;;;;5029921;28;20026;-85
2021/04/13 00:09:35;;;;;;;4.63;3.40;;;5.90;65.20;;;;;;5026719;28;20034;-85
2021/04/13 00:12:07;;;;;;;7.53;3.30;;;5.80;65.10;;;;;;5029129;28;20508;-85
2021/04/13 00:14:46;;;;;;;5.43;2.93;;;5.80;65.10;;;;;;5026771;28;20064;-85
2021/04/13 00:17:16;;;;;;;3.43;2.43;;;5.90;65.30;;;;;;5030744;28;20025;-84
2021/04/13 00:20:06;;;;;;;6.13;2.93;;;5.90;65.00;;;;;;5031830;28;20032;-85
2021/04/13 00:22:33;;;;;;;5.03;3.20;;;5.90;64.90;;;;;;5027422;28;20495;-84
2021/04/13 00:25:00;;;;;;;6.37;3.03;;;5.90;65.60;;;;;;5027596;28;20409;-85
2021/04/13 00:27:27;;;;;;;5.13;3.10;;;5.90;64.90;;;;;;5025025;28;20033;-85
2021/04/13 00:30:06;;;;;;;3.90;2.80;;;5.90;65.00;;;;;;5025250;28;21678;-85
2021/04/13 00:32:33;;;;;;;6.67;3.23;;;5.90;65.00;;;;;;5026670;28;20080;-85
2021/04/13 00:35:16;;;;;;;4.57;2.70;;;5.90;65.00;;;;;;5024796;28;20030;-85
2021/04/13 00:37:42;;;;;;;4.25;3.05;;;5.90;64.90;;;;;;5027898;28;20398;-85
2021/04/13 00:40:34;;;;;;;3.20;2.90;;;5.90;64.70;;;;;;5030671;28;20045;-85
2021/04/13 00:43:03;;;;;;;4.68;3.08;;;5.80;64.90;;;;;;5025055;28;20574;-84
2021/04/13 00:45:36;;;;;;;3.87;3.13;;;5.80;64.80;;;;;;5031997;28;20036;-84
2021/04/13 00:48:04;;;;;;;3.93;2.83;;;5.80;64.80;;;;;;5031254;28;20501;-84
2021/04/13 00:50:46;;;;;;;4.57;2.80;;;5.80;64.80;;;;;;5027362;28;20582;-84
2021/04/13 00:53:17;;;;;;;4.72;3.03;;;5.80;64.80;;;;;;5031359;28;20397;-85
2021/04/13 00:55:57;;;;;;;3.37;2.97;;;5.80;64.70;;;;;;5031728;28;20120;-85
2021/04/13 00:58:33;;;;;;;5.33;3.27;;;5.80;64.80;;;;;;5031496;28;20117;-85
2021/04/13 01:01:16;;;;;;;3.37;2.50;;;5.80;64.90;;;;;;5029960;28;20084;-84
2021/04/13 01:03:49;;;;;;;3.77;2.53;;;5.80;64.90;;;;;;5032632;28;20498;-85
2021/04/13 01:06:25;;;;;;;3.78;2.95;;;5.80;64.80;;;;;;5018739;28;20025;-85
2021/04/13 01:09:09;;;;;;;3.43;2.67;;;5.90;64.70;;;;;;5030930;28;20037;-85
2021/04/13 01:11:58;;;;;;;6.20;2.67;;;5.90;64.70;;;;;;5026738;28;20041;-85
2021/04/13 01:14:26;;;;;;;10.47;6.63;;;5.90;64.70;;;;;;5015720;28;20485;-85
2021/04/13 01:17:02;;;;;;;36.13;19.10;;;5.90;64.60;;;;;;5028646;28;20026;-85
2021/04/13 01:19:43;;;;;;;87.93;38.67;;;5.80;64.50;;;;;;5025606;28;20030;-85
2021/04/13 01:22:12;;;;;;;7.80;4.73;;;5.80;64.70;;;;;;5025850;28;20014;-85
2021/04/13 01:24:46;;;;;;;7.93;4.97;;;5.80;64.80;;;;;;5030626;28;20040;-85
2021/04/13 01:27:16;;;;;;;8.70;5.37;;;5.80;64.70;;;;;;5017582;28;20028;-85
2021/04/13 01:29:44;;;;;;;8.83;6.87;;;5.80;64.90;;;;;;5018279;28;20110;-85
2021/04/13 01:32:16;;;;;;;9.33;7.07;;;5.70;64.80;;;;;;5020678;28;20025;-85
2021/04/13 01:34:48;;;;;;;9.50;6.78;;;5.80;65.00;;;;;;5027904;28;20469;-85
2021/04/13 01:37:54;;;;;;;9.75;6.70;;;5.80;64.90;;;;;;5025730;28;20512;-85
2021/04/13 01:40:33;;;;;;;16.03;12.20;;;5.80;65.00;;;;;;5024242;28;20029;-84
2021/04/13 01:43:00;;;;;;;9.73;6.00;;;5.80;64.90;;;;;;5020865;28;20520;-85
2021/04/13 01:45:30;;;;;;;10.20;5.83;;;5.80;65.00;;;;;;5046134;28;20474;-85
2021/04/13 01:47:57;;;;;;;8.40;5.70;;;5.80;65.00;;;;;;5030136;28;20021;-84
2021/04/13 01:50:30;;;;;;;9.63;5.83;;;5.80;65.00;;;;;;5025722;28;20033;-84
2021/04/13 01:53:04;;;;;;;10.07;5.87;;;5.80;65.10;;;;;;5025599;28;20033;-84
2021/04/13 01:55:32;;;;;;;10.47;6.20;;;5.70;65.50;;;;;;5030581;28;20035;-84
2021/04/13 01:58:31;;;;;;;8.50;6.03;;;5.70;65.00;;;;;;5033040;28;20035;-85
2021/04/13 02:01:03;;;;;;;13.13;9.17;;;5.70;65.10;;;;;;5030990;28;20029;-84
2021/04/13 02:03:54;;;;;;;7.73;6.30;;;5.70;65.00;;;;;;5025000;28;20124;-84
2021/04/13 02:06:48;;;;;;;6.80;5.10;;;5.70;65.00;;;;;;5037315;28;20021;-84
2021/04/13 02:12:12;;;;;;;6.77;4.00;;;5.70;64.90;;;;;;5035103;28;20377;-85
2021/04/13 02:14:52;;;;;;;4.60;4.10;;;5.80;65.10;;;;;;5036295;28;20052;-85
2021/04/13 02:17:41;;;;;;;6.90;4.63;;;5.70;64.70;;;;;;5047976;28;20485;-84
2021/04/13 02:20:13;;;;;;;5.10;4.03;;;5.70;64.90;;;;;;5031549;28;20083;-84
2021/04/13 02:22:45;;;;;;;5.07;3.80;;;5.70;64.90;;;;;;5018225;28;20026;-84
2021/04/13 02:25:14;;;;;;;5.60;3.50;;;5.70;64.80;;;;;;5032189;28;20021;-84
2021/04/13 02:27:41;;;;;;;4.80;4.30;;;5.70;64.90;;;;;;5033666;28;20045;-84
2021/04/13 02:30:16;;;;;;;4.83;3.80;;;5.70;64.90;;;;;;5031767;28;20033;-84
2021/04/13 02:32:45;;;;;;;4.47;3.60;;;5.70;64.90;;;;;;5032580;28;20080;-85
2021/04/13 02:35:24;;;;;;;5.40;3.57;;;5.70;65.00;;;;;;5035015;28;20021;-85
2021/04/13 02:38:01;;;;;;;3.70;3.20;;;5.70;65.00;;;;;;5032614;28;20036;-85
2021/04/13 02:40:42;;;;;;;5.03;3.23;;;5.70;65.00;;;;;;5028597;28;20108;-85
2021/04/13 02:43:14;;;;;;;4.23;2.97;;;5.70;65.00;;;;;;5032057;28;20059;-85
2021/04/13 02:45:46;;;;;;;4.88;2.92;;;5.70;65.00;;;;;;5017326;28;20108;-84
2021/04/13 02:48:14;;;;;;;4.47;3.38;;;5.60;65.00;;;;;;5032634;28;20021;-84
2021/04/13 02:50:47;;;;;;;7.33;3.67;;;5.60;65.10;;;;;;5016468;28;20057;-84
2021/04/13 02:53:16;;;;;;;4.07;3.37;;;5.60;65.10;;;;;;5030035;28;20109;-85
2021/04/13 02:55:53;;;;;;;6.03;3.40;;;5.60;65.10;;;;;;5027614;28;20454;-85
2021/04/13 02:58:23;;;;;;;9.07;3.57;;;5.60;65.20;;;;;;5033729;28;20075;-85
2021/04/13 03:00:53;;;;;;;6.50;3.90;;;5.60;65.20;;;;;;5033561;28;20037;-84
2021/04/13 03:03:27;;;;;;;7.67;4.60;;;5.60;65.20;;;;;;5027200;28;20018;-84
2021/04/13 03:05:55;;;;;;;6.77;3.53;;;5.60;65.10;;;;;;5035029;28;20381;-84
2021/04/13 03:08:21;;;;;;;5.93;3.43;;;5.60;65.20;;;;;;5034979;28;20021;-84
2021/04/13 03:11:05;;;;;;;5.27;3.27;;;5.60;65.20;;;;;;5033167;28;20029;-85
2021/04/13 03:13:35;;;;;;;8.20;4.00;;;5.60;65.40;;;;;;5033611;28;20049;-84
2021/04/13 03:16:02;;;;;;;4.87;3.73;;;5.60;65.40;;;;;;5028830;28;20042;-84
2021/04/13 03:18:41;;;;;;;7.17;3.97;;;5.60;65.40;;;;;;5032036;28;20116;-84
2021/04/13 03:21:19;;;;;;;7.67;3.73;;;5.60;65.40;;;;;;5033407;28;20029;-84
2021/04/13 03:23:45;;;;;;;4.23;2.93;;;5.60;65.40;;;;;;5036384;28;20033;-84
2021/04/13 03:26:24;;;;;;;4.87;3.60;;;5.60;65.40;;;;;;5033974;28;20021;-84
2021/04/13 03:28:58;;;;;;;8.70;3.73;;;5.60;65.40;;;;;;5026753;28;20021;-84
2021/04/13 03:31:31;;;;;;;4.73;3.60;;;5.60;65.40;;;;;;5030288;28;20053;-84
2021/04/13 03:34:05;;;;;;;4.57;3.90;;;5.60;65.30;;;;;;5022756;28;20022;-84
2021/04/13 03:36:32;;;;;;;6.60;3.83;;;5.60;65.40;;;;;;5035041;28;20506;-84
2021/04/13 03:39:11;;;;;;;5.63;4.53;;;5.60;65.40;;;;;;5017067;28;20116;-84
2021/04/13 03:41:46;;;;;;;6.87;5.47;;;5.60;65.50;;;;;;5031687;28;20105;-84
2021/04/13 03:44:16;;;;;;;8.93;5.57;;;5.50;65.60;;;;;;5029810;28;20029;-84
2021/04/13 03:46:42;;;;;;;7.90;5.20;;;5.50;65.60;;;;;;5029442;28;20025;-84
2021/04/13 03:49:17;;;;;;;7.30;5.70;;;5.50;65.70;;;;;;5019549;28;20378;-84
2021/04/13 03:51:51;;;;;;;8.47;6.10;;;5.60;65.70;;;;;;5030643;28;20025;-84
2021/04/13 03:54:35;;;;;;;8.53;6.43;;;5.60;65.70;;;;;;5034404;28;20068;-84
2021/04/13 03:57:03;;;;;;;10.30;6.80;;;5.60;65.70;;;;;;5023986;28;20091;-84
2021/04/13 03:59:33;;;;;;;8.47;6.47;;;5.60;65.70;;;;;;5033774;28;20037;-84
2021/04/13 04:02:00;;;;;;;11.57;8.60;;;5.60;65.70;;;;;;5031176;28;20021;-84
2021/04/13 04:04:33;;;;;;;10.97;7.70;;;5.60;65.70;;;;;;5026985;28;20535;-84
2021/04/13 04:07:19;;;;;;;11.03;7.40;;;5.60;65.80;;;;;;5030365;28;20496;-84
2021/04/13 04:09:44;;;;;;;11.47;7.53;;;5.60;65.80;;;;;;5041549;28;20037;-84
2021/04/13 04:12:22;;;;;;;13.20;8.73;;;5.60;65.80;;;;;;5032048;28;20025;-84
2021/04/13 04:15:03;;;;;;;14.07;9.27;;;5.60;66.00;;;;;;5032280;28;20083;-84
2021/04/13 04:17:32;;;;;;;12.93;9.90;;;5.60;66.00;;;;;;5032186;28;20493;-84
2021/04/13 04:20:09;;;;;;;13.87;10.13;;;5.60;66.00;;;;;;5031759;28;20535;-84
2021/04/13 04:22:45;;;;;;;14.07;10.17;;;5.60;66.10;;;;;;5032099;28;20030;-84
2021/04/13 04:25:33;;;;;;;13.47;9.83;;;5.60;66.20;;;;;;5033425;28;20508;-84
2021/04/13 04:28:05;;;;;;;15.23;9.97;;;5.50;66.10;;;;;;5023987;28;20053;-83
2021/04/13 04:30:33;;;;;;;16.07;12.17;;;5.60;66.30;;;;;;5030035;28;20036;-84
2021/04/13 04:33:01;;;;;;;16.27;10.83;;;5.50;66.30;;;;;;5028142;28;20583;-84
2021/04/13 04:35:39;;;;;;;14.07;10.27;;;5.50;66.20;;;;;;5027935;28;20032;-84
2021/04/13 04:38:07;;;;;;;15.43;10.30;;;5.50;66.40;;;;;;5022526;28;20548;-84
2021/04/13 04:40:50;;;;;;;16.50;10.30;;;5.60;66.30;;;;;;5027805;28;20045;-84
2021/04/13 04:43:18;;;;;;;12.82;10.25;;;5.50;66.30;;;;;;5025565;28;20021;-84
2021/04/13 04:45:44;;;;;;;13.73;9.63;;;5.50;66.30;;;;;;5019497;28;20499;-83
2021/04/13 04:48:27;;;;;;;14.20;10.27;;;5.50;66.40;;;;;;5022790;28;20033;-84
2021/04/13 04:51:11;;;;;;;12.88;9.48;;;5.50;67.10;;;;;;5018887;28;21439;-84
2021/04/13 04:53:39;;;;;;;11.47;9.13;;;5.60;66.40;;;;;;5030099;28;20087;-84
2021/04/13 04:56:07;;;;;;;13.00;9.27;;;5.60;66.50;;;;;;5029318;28;20116;-84
2021/04/13 04:58:34;;;;;;;14.67;10.97;;;5.60;66.50;;;;;;5030283;28;20026;-84
2021/04/13 05:01:00;;;;;;;16.43;12.27;;;5.60;66.50;;;;;;5020333;28;20116;-84
2021/04/13 05:03:29;;;;;;;20.80;14.03;;;5.60;66.50;;;;;;5026604;28;20340;-84
2021/04/13 05:05:56;;;;;;;19.27;11.33;;;5.60;66.50;;;;;;5019397;28;20037;-84
2021/04/13 05:08:22;;;;;;;15.33;10.37;;;5.60;66.40;;;;;;5041710;28;20025;-84
2021/04/13 05:10:50;;;;;;;14.17;10.20;;;5.60;66.40;;;;;;5029940;28;20037;-84
2021/04/13 05:13:17;;;;;;;14.23;9.60;;;5.60;66.50;;;;;;5029305;28;20040;-84
2021/04/13 05:15:42;;;;;;;17.23;10.43;;;5.60;66.50;;;;;;5029240;28;20044;-84
2021/04/13 05:18:08;;;;;;;15.17;9.60;;;5.60;66.40;;;;;;5024218;28;20033;-84
2021/04/13 05:20:34;;;;;;;13.20;8.90;;;5.60;66.40;;;;;;5031928;28;20079;-84
2021/04/13 05:23:00;;;;;;;13.70;8.33;;;5.60;66.30;;;;;;5029468;28;20026;-84
2021/04/13 05:25:26;;;;;;;9.70;6.53;;;5.70;66.30;;;;;;5030629;28;20034;-84
2021/04/13 05:27:52;;;;;;;9.57;6.70;;;5.60;66.30;;;;;;5024745;28;20392;-85
2021/04/13 05:30:19;;;;;;;10.00;6.50;;;5.60;66.10;;;;;;5020599;28;20501;-84
2021/04/13 05:32:46;;;;;;;9.73;6.47;;;5.70;66.10;;;;;;5033736;28;20041;-84
2021/04/13 05:35:14;;;;;;;14.03;7.63;;;5.70;66.00;;;;;;5024245;28;20029;-84
2021/04/13 05:37:41;;;;;;;12.23;6.67;;;5.70;66.10;;;;;;5033987;28;20497;-84
2021/04/13 05:40:15;;;;;;;11.70;7.33;;;5.70;66.10;;;;;;5026229;28;20037;-84
2021/04/13 05:42:41;;;;;;;12.83;7.43;;;5.70;66.10;;;;;;5031811;28;20049;-84
2021/04/13 05:45:10;;;;;;;12.03;7.50;;;5.70;66.00;;;;;;5026606;28;20022;-84
2021/04/13 05:47:37;;;;;;;11.67;8.00;;;5.70;66.20;;;;;;5032958;28;20025;-84
2021/04/13 05:50:06;;;;;;;12.67;8.77;;;5.70;66.10;;;;;;5025797;28;20453;-84
2021/04/13 05:52:31;;;;;;;13.37;8.87;;;5.70;66.30;;;;;;5026755;28;20026;-84
2021/04/13 05:54:57;;;;;;;11.40;8.83;;;5.80;66.20;;;;;;5025144;28;20032;-84
2021/04/13 05:57:30;;;;;;;11.73;8.47;;;5.80;66.20;;;;;;5045441;28;20084;-85
2021/04/13 05:59:58;;;;;;;12.47;7.60;;;5.80;66.20;;;;;;5032906;28;20144;-85
2021/04/13 06:02:24;;;;;;;9.17;6.20;;;5.80;66.20;;;;;;5028897;28;20028;-85
2021/04/13 06:04:53;;;;;;;7.20;5.63;;;5.80;66.10;;;;;;5033507;28;20029;-84
2021/04/13 06:07:20;;;;;;;7.40;5.80;;;5.80;66.10;;;;;;5032486;28;20040;-85
2021/04/13 06:09:46;;;;;;;8.33;7.00;;;5.90;66.10;;;;;;5032739;28;20029;-84
2021/04/13 06:12:14;;;;;;;9.80;6.97;;;5.90;66.00;;;;;;5028294;28;20029;-85
2021/04/13 06:14:41;;;;;;;8.47;6.20;;;5.80;66.00;;;;;;5021806;28;20104;-85
2021/04/13 06:17:09;;;;;;;8.73;6.77;;;5.90;66.00;;;;;;5017853;28;20504;-84
2021/04/13 06:19:35;;;;;;;8.53;7.27;;;5.90;65.80;;;;;;5042293;28;20054;-84
2021/04/13 06:22:00;;;;;;;13.27;9.70;;;5.90;65.80;;;;;;5023552;28;20060;-85
2021/04/13 06:24:27;;;;;;;13.50;10.07;;;5.90;65.80;;;;;;5033319;28;20497;-84
2021/04/13 06:26:52;;;;;;;14.07;8.37;;;5.90;65.70;;;;;;5034516;28;20021;-85
2021/04/13 06:29:18;;;;;;;8.40;6.87;;;6.00;65.70;;;;;;5032910;28;20040;-84
2021/04/13 06:31:44;;;;;;;10.87;6.70;;;6.00;65.50;;;;;;5029950;28;20037;-84
2021/04/13 06:34:10;;;;;;;9.97;6.77;;;6.00;65.60;;;;;;5034533;28;20099;-84
2021/04/13 06:36:37;;;;;;;9.00;7.67;;;6.00;65.50;;;;;;5033464;28;20408;-84
2021/04/13 06:39:09;;;;;;;12.90;7.80;;;6.00;65.50;;;;;;5030813;28;20032;-85
2021/04/13 06:41:50;;;;;;;12.83;9.03;;;6.10;65.40;;;;;;5031843;28;20096;-84
2021/04/13 06:44:41;;;;;;;11.30;7.70;;;6.10;65.30;;;;;;5026507;28;20021;-85
2021/04/13 06:47:30;;;;;;;7.97;5.27;;;6.10;65.20;;;;;;5022760;28;20051;-85
2021/04/13 06:50:03;;;;;;;7.87;4.67;;;6.20;65.10;;;;;;5035435;28;20055;-85
2021/04/13 06:52:44;;;;;;;4.90;3.83;;;6.20;65.00;;;;;;5033760;28;20512;-85
2021/04/13 06:55:27;;;;;;;4.50;3.30;;;6.20;64.90;;;;;;5022290;28;20079;-85
2021/04/13 06:58:09;;;;;;;4.10;2.97;;;6.20;64.80;;;;;;5035894;28;20503;-85
2021/04/13 07:01:00;;;;;;;4.07;3.45;;;6.30;65.40;;;;;;5023451;28;20390;-85
2021/04/13 07:03:31;;;;;;;4.17;3.57;;;6.30;64.60;;;;;;5025469;28;20025;-85
2021/04/13 07:06:38;;;;;;;4.80;3.20;;;6.40;64.50;;;;;;5026958;28;20035;-85
2021/04/13 07:09:46;;;;;;;4.70;3.40;;;6.40;64.50;;;;;;5024280;28;20061;-85
2021/04/13 07:12:49;;;;;;;5.60;4.10;;;6.50;64.40;;;;;;5035458;28;20021;-85
2021/04/13 07:15:28;;;;;;;;;;;6.50;64.30;;;;;;4989337;28;20027;-85
2021/04/13 07:18:10;;;;;;;7.03;4.40;;;6.60;64.20;;;;;;5026263;28;20404;-85
2021/04/13 07:20:53;;;;;;;5.90;3.97;;;6.60;64.00;;;;;;5032413;28;20408;-85
2021/04/13 07:23:25;;;;;;;7.10;4.87;;;6.70;64.00;;;;;;5028534;28;20022;-85
2021/04/13 07:26:01;;;;;;;6.93;4.80;;;6.70;63.90;;;;;;5021029;28;20381;-85
2021/04/13 07:28:39;;;;;;;7.30;4.50;;;6.80;63.80;;;;;;5030515;28;20104;-85
2021/04/13 07:31:12;;;;;;;5.23;4.17;;;6.90;63.50;;;;;;5034931;28;20052;-86
2021/04/13 07:33:38;;;;;;;8.10;4.87;;;6.90;63.40;;;;;;5032358;28;20437;-86
2021/04/13 07:36:10;;;;;;;7.23;4.73;;;7.00;63.20;;;;;;5028016;28;20537;-86
2021/04/13 07:38:41;;;;;;;5.70;4.50;;;7.00;63.20;;;;;;5043255;28;20527;-85
2021/04/13 07:41:55;;;;;;;6.73;5.33;;;7.10;63.10;;;;;;5034747;28;20473;-86
2021/04/13 07:44:23;;;;;;;;;;;7.20;62.90;;;;;;5024913;28;20427;-86
2021/04/13 07:47:17;;;;;;;7.80;5.17;;;7.20;62.80;;;;;;5032624;28;19999;-85
2021/04/13 07:49:49;;;;;;;;;;;7.30;62.80;;;;;;5025965;28;20488;-86
2021/04/13 07:52:47;;;;;;;10.50;5.93;;;7.40;62.70;;;;;;5032759;28;19908;-86
2021/04/13 07:55:22;;;;;;;8.10;6.17;;;7.40;62.50;;;;;;5021742;28;20025;-86
2021/04/13 07:58:00;;;;;;;8.07;6.30;;;7.50;62.50;;;;;;5033336;28;20508;-86
2021/04/13 08:00:31;;;;;;;7.43;5.97;;;7.50;62.40;;;;;;5034227;28;20029;-86
2021/04/13 08:03:25;;;;;;;7.60;6.83;;;7.60;62.40;;;;;;5022757;28;20079;-86
2021/04/13 08:05:53;;;;;;;7.73;6.63;;;7.70;62.30;;;;;;5032969;28;20500;-86
2021/04/13 08:08:39;;;;;;;10.93;7.27;;;7.70;62.10;;;;;;5031616;28;20496;-85
2021/04/13 08:11:17;;;;;;;12.33;7.00;;;7.70;61.90;;;;;;5032247;28;20033;-85
2021/04/13 08:13:49;;;;;;;11.00;6.87;;;7.70;61.80;;;;;;5033055;28;20033;-85
2021/04/13 08:16:41;;;;;;;9.07;6.13;;;7.60;61.80;;;;;;5032581;28;20038;-85
2021/04/13 08:19:28;;;;;;;6.53;5.83;;;7.60;62.30;;;;;;5030907;28;20042;-85
2021/04/13 08:22:11;;;;;;;6.93;5.80;;;7.60;61.80;;;;;;5032700;28;20524;-85
2021/04/13 08:24:54;;;;;;;8.32;5.80;;;7.70;61.60;;;;;;5016410;28;20025;-86
2021/04/13 08:27:48;;;;;;;9.63;6.33;;;7.60;61.70;;;;;;5032966;28;20539;-85
2021/04/13 08:30:46;;;;;;;10.87;7.00;;;7.60;61.50;;;;;;5013168;28;20037;-85
2021/04/13 08:33:48;;;;;;;10.73;6.67;;;7.70;61.50;;;;;;5018500;28;20396;-85
2021/04/13 08:36:33;;;;;;;11.80;7.40;;;7.60;61.20;;;;;;5017625;28;20512;-85
2021/04/13 08:39:05;;;;;;;7.73;6.03;;;7.60;61.30;;;;;;5034150;28;20029;-85
2021/04/13 08:41:44;;;;;;;10.98;5.25;;;7.70;61.30;;;;;;5032590;28;20100;-84
2021/04/13 08:44:46;;;;;;;6.30;5.37;;;7.60;61.20;;;;;;5015536;28;20045;-84
2021/04/13 08:47:21;;;;;;;8.07;5.00;;;7.70;61.10;;;;;;5032032;28;20030;-84
2021/04/13 08:49:55;;;;;;;11.47;5.70;;;7.70;61.00;;;;;;5017704;28;20033;-84
2021/04/13 08:52:26;;;;;;;5.17;4.17;;;7.70;61.00;;;;;;5023011;28;20029;-84
2021/04/13 08:55:03;;;;;;;5.00;4.13;;;7.70;61.00;;;;;;5027502;28;20061;-84
2021/04/13 08:57:36;;;;;;;7.27;4.07;;;7.70;60.90;;;;;;5022112;28;20045;-84
2021/04/13 09:00:24;;;;;;;6.50;3.97;;;7.70;61.00;;;;;;5026415;28;20037;-84
2021/04/13 09:03:11;;;;;;;7.07;4.13;;;7.70;61.10;;;;;;5018468;28;20100;-84
2021/04/13 09:05:39;;;;;;;9.83;4.87;;;7.70;60.80;;;;;;5028191;28;20028;-84
2021/04/13 09:08:38;;;;;;;11.17;4.90;;;7.70;60.70;;;;;;5031770;28;20775;-84
2021/04/13 09:11:42;;;;;;;7.97;5.00;;;7.70;60.80;;;;;;5021822;28;20100;-85
2021/04/13 09:14:45;;;;;;;4.00;3.00;;;7.80;60.80;;;;;;5007634;28;20087;-85
2021/04/13 09:17:22;;;;;;;4.28;3.30;;;7.80;60.60;;;;;;5029349;28;20037;-85
2021/04/13 09:20:12;;;;;;;4.53;3.50;;;7.90;60.40;;;;;;5023935;28;20057;-85
2021/04/13 09:22:49;;;;;;;6.93;4.93;;;8.00;60.50;;;;;;5031816;28;20083;-85
2021/04/13 09:25:35;;;;;;;5.53;3.30;;;8.20;60.30;;;;;;5018741;28;20053;-85
2021/04/13 09:28:20;;;;;;;5.63;3.53;;;8.30;60.30;;;;;;5032025;28;20026;-85
2021/04/13 09:31:08;;;;;;;4.70;3.33;;;8.40;60.10;;;;;;5028825;28;20067;-85
2021/04/13 09:33:40;;;;;;;3.70;2.90;;;8.40;60.10;;;;;;5025724;28;20111;-86
2021/04/13 09:36:20;;;;;;;3.57;2.80;;;8.40;60.00;;;;;;5030280;28;20037;-85
2021/04/13 09:38:49;;;;;;;4.70;2.50;;;8.40;59.80;;;;;;5029310;28;20022;-86
2021/04/13 09:41:53;;;;;;;3.63;3.07;;;8.30;59.70;;;;;;5030778;28;20033;-85
2021/04/13 09:44:31;;;;;;;3.93;2.93;;;8.30;59.90;;;;;;5018962;28;20031;-86
2021/04/13 09:47:06;;;;;;;3.63;2.73;;;8.20;59.80;;;;;;5022606;28;20022;-85
2021/04/13 09:49:56;;;;;;;7.73;3.70;;;8.20;60.00;;;;;;5020714;28;20064;-85
2021/04/13 09:52:40;;;;;;;4.77;3.60;;;8.30;60.00;;;;;;5030321;28;20029;-85
2021/04/13 09:55:49;;;;;;;9.37;4.87;;;8.30;60.00;;;;;;5025842;28;20512;-85
2021/04/13 09:58:29;;;;;;;8.10;5.40;;;8.40;60.00;;;;;;5011777;28;20026;-85
2021/04/13 10:00:54;;;;;;;4.63;3.00;;;8.50;59.80;;;;;;5025353;28;20030;-85
2021/04/13 10:03:23;;;;;;;6.03;3.70;;;8.50;59.60;;;;;;5020797;28;20022;-85
2021/04/13 10:05:49;;;;;;;4.93;3.73;;;8.50;59.50;;;;;;5025191;28;20024;-85
2021/04/13 10:08:15;;;;;;;9.07;4.23;;;8.50;59.50;;;;;;5024556;28;20045;-85
2021/04/13 10:11:02;;;;;;;6.87;4.73;;;8.60;59.50;;;;;;5027684;28;20030;-85
2021/04/13 10:13:49;;;;;;;7.40;4.97;;;8.60;59.30;;;;;;5028415;28;20065;-84
2021/04/13 10:16:24;;;;;;;5.47;4.53;;;8.60;59.60;;;;;;5030702;28;20022;-85
2021/04/13 10:19:12;;;;;;;4.80;3.80;;;8.60;59.50;;;;;;5034205;28;20084;-84
2021/04/13 10:22:15;;;;;;;4.57;3.17;;;8.60;59.50;;;;;;5031781;28;20037;-84
2021/04/13 10:25:06;;;;;;;4.68;2.97;;;8.70;59.50;;;;;;5033368;28;20021;-85
2021/04/13 10:27:47;;;;;;;3.33;3.03;;;8.70;59.60;;;;;;4998676;28;20037;-84
2021/04/13 10:30:12;;;;;;;4.47;2.90;;;8.70;59.50;;;;;;5035431;28;20455;-85
2021/04/13 10:33:16;;;;;;;3.17;2.57;;;8.90;59.60;;;;;;5037399;28;20116;-84
2021/04/13 10:36:21;;;;;;;3.95;2.88;;;8.90;59.30;;;;;;5025635;28;20050;-84
2021/04/13 10:39:23;;;;;;;5.40;2.40;;;8.90;59.30;;;;;;5018526;28;20037;-84
2021/04/13 10:42:13;;;;;;;3.77;3.07;;;8.90;59.40;;;;;;5028153;28;20038;-84
2021/04/13 10:45:08;;;;;;;3.73;2.60;;;8.90;59.50;;;;;;5022098;28;20103;-84
2021/04/13 10:48:11;;;;;;;5.60;3.03;;;8.90;59.50;;;;;;5031214;28;20501;-84
2021/04/13 10:50:40;;;;;;;4.05;2.53;;;8.90;59.50;;;;;;5045741;28;20552;-84
2021/04/13 10:53:24;;;;;;;3.37;2.20;;;8.90;59.50;;;;;;5020591;28;20211;-84
2021/04/13 10:56:02;;;;;;;2.87;1.90;;;8.90;59.40;;;;;;5035889;28;20037;-84
2021/04/13 10:59:18;;;;;;;9.47;3.63;;;8.90;59.50;;;;;;5036167;28;20030;-84
2021/04/13 11:01:54;;;;;;;7.83;3.47;;;8.80;59.60;;;;;;5032231;28;20120;-84
2021/04/13 11:04:51;;;;;;;5.30;2.93;;;8.70;59.60;;;;;;5032669;28;20032;-84
2021/04/13 11:07:35;;;;;;;4.43;2.50;;;8.70;59.80;;;;;;5026429;28;20021;-84
2021/04/13 11:10:25;;;;;;;7.57;3.83;;;8.60;59.90;;;;;;5029100;28;20041;-84
2021/04/13 11:13:18;;;;;;;14.87;4.53;;;8.40;60.00;;;;;;5028686;28;20026;-84
2021/04/13 11:16:02;;;;;;;5.18;3.05;;;8.30;60.40;;;;;;5024853;28;20029;-84
2021/04/13 11:18:33;;;;;;;13.10;5.20;;;8.20;60.40;;;;;;5030298;28;20078;-84
2021/04/13 11:21:20;;;;;;;23.63;8.30;;;8.10;60.50;;;;;;5030106;28;20635;-84
2021/04/13 11:24:09;;;;;;;19.97;7.70;;;8.10;60.60;;;;;;5029124;28;20355;-84
2021/04/13 11:26:50;;;;;;;11.60;6.17;;;7.90;60.60;;;;;;5023526;28;20029;-84
2021/04/13 11:29:53;;;;;;;8.77;5.50;;;7.90;60.90;;;;;;5029073;28;20068;-84
2021/04/13 11:32:55;;;;;;;5.28;4.05;;;7.90;60.80;;;;;;5030152;28;20473;-84
2021/04/13 11:35:26;;;;;;;5.23;3.90;;;7.60;60.70;;;;;;5025921;28;20029;-83
2021/04/13 11:38:16;;;;;;;4.93;3.83;;;7.50;61.40;;;;;;5021074;28;20064;-83
2021/04/13 11:40:52;;;;;;;13.33;7.20;;;7.60;61.90;;;;;;5028999;28;20479;-82
2021/04/13 11:43:23;;;;;;;7.83;5.10;;;7.70;61.90;;;;;;5020098;28;20026;-83
2021/04/13 11:46:07;;;;;;;8.67;4.50;;;7.80;62.00;;;;;;5026971;28;20076;-83
2021/04/13 11:48:35;;;;;;;4.90;3.90;;;7.80;62.10;;;;;;5022500;28;20034;-83
2021/04/13 11:51:07;;;;;;;4.43;3.77;;;7.80;62.40;;;;;;5027380;28;20385;-83
2021/04/13 11:53:42;;;;;;;4.50;4.10;;;7.80;62.40;;;;;;5026142;28;20079;-83
2021/04/13 11:56:23;;;;;;;6.63;4.23;;;7.90;62.40;;;;;;5032796;28;20108;-83
2021/04/13 11:59:17;;;;;;;6.37;4.50;;;8.00;62.60;;;;;;5025620;28;20487;-83
2021/04/13 12:01:49;;;;;;;4.73;4.00;;;8.10;62.80;;;;;;5020401;28;20036;-83
2021/04/13 12:04:40;;;;;;;5.67;4.30;;;8.20;62.60;;;;;;5026474;28;20088;-83
2021/04/13 12:07:09;;;;;;;7.90;4.40;;;8.40;62.80;;;;;;5025386;28;20508;-83
2021/04/13 12:09:59;;;;;;;5.50;4.23;;;8.40;62.50;;;;;;5020391;28;20057;-84
2021/04/13 12:12:34;;;;;;;5.10;4.60;;;8.50;63.00;;;;;;5029472;28;20041;-83
2021/04/13 12:15:20;;;;;;;5.03;4.43;;;8.60;63.00;;;;;;5025697;28;20025;-83
2021/04/13 12:17:51;;;;;;;5.70;4.30;;;8.70;62.80;;;;;;5028809;28;20083;-83
2021/04/13 12:20:42;;;;;;;5.87;4.17;;;8.90;62.70;;;;;;5022528;28;20030;-83
2021/04/13 12:23:11;;;;;;;6.10;4.57;;;9.00;62.80;;;;;;5031286;28;20532;-83
2021/04/13 12:25:53;;;;;;;5.90;5.30;;;9.00;62.50;;;;;;5031676;28;20091;-84
2021/04/13 12:28:34;;;;;;;5.95;5.13;;;9.00;62.30;;;;;;5029102;28;20030;-84
2021/04/13 12:31:05;;;;;;;5.53;4.93;;;8.90;62.20;;;;;;5027381;28;20107;-84
2021/04/13 12:33:31;;;;;;;5.20;4.67;;;8.90;62.40;;;;;;5030569;28;20041;-84
2021/04/13 12:36:05;;;;;;;5.80;5.20;;;9.00;62.40;;;;;;5033159;28;20379;-84
2021/04/13 12:38:45;;;;;;;6.27;4.33;;;9.00;62.00;;;;;;5027287;28;20037;-85
2021/04/13 12:41:20;;;;;;;6.53;5.83;;;9.00;62.10;;;;;;5031265;28;20033;-84
2021/04/13 12:44:11;;;;;;;7.53;5.47;;;9.10;62.00;;;;;;5031152;28;20037;-84
2021/04/13 12:46:39;;;;;;;5.90;5.30;;;9.20;62.20;;;;;;5034005;28;20674;-84
2021/04/13 12:49:25;;;;;;;12.20;5.90;;;9.30;62.00;;;;;;5021156;28;20026;-84
2021/04/13 12:51:55;;;;;;;5.93;5.33;;;9.30;62.10;;;;;;5026217;28;20128;-84
2021/04/13 12:54:27;;;;;;;6.80;5.70;;;9.30;62.20;;;;;;5024479;28;20486;-83
2021/04/13 12:56:57;;;;;;;7.05;6.07;;;9.40;61.90;;;;;;5026587;28;20056;-83
2021/04/13 12:59:26;;;;;;;7.43;6.10;;;9.40;61.60;;;;;;5018233;28;20099;-83
2021/04/13 13:01:52;;;;;;;7.70;6.07;;;9.40;61.30;;;;;;5023879;28;20029;-84
2021/04/13 13:04:23;;;;;;;7.23;6.43;;;9.40;61.10;;;;;;5026050;28;20166;-84
2021/04/13 13:07:19;;;;;;;7.97;6.97;;;9.30;60.50;;;;;;5027364;28;20068;-84
2021/04/13 13:09:44;;;;;;;11.40;9.30;;;9.00;60.50;;;;;;5017756;28;20033;-85
2021/04/13 13:12:20;;;;;;;12.97;9.93;;;8.90;60.90;;;;;;5027262;28;20586;-84
2021/04/13 13:14:51;;;;;;;8.90;7.13;;;8.80;61.30;;;;;;5023574;28;21141;-84
2021/04/13 13:17:27;;;;;;;8.17;7.13;;;8.80;61.50;;;;;;5026106;28;20030;-84
2021/04/13 13:19:53;;;;;;;8.93;7.60;;;8.60;61.60;;;;;;5046108;28;20022;-84
2021/04/13 13:22:28;;;;;;;8.93;7.87;;;8.50;62.10;;;;;;5026804;28;20026;-84
2021/04/13 13:24:55;;;;;;;8.90;8.00;;;8.50;62.60;;;;;;5028149;28;20102;-84
2021/04/13 13:27:28;;;;;;;11.27;8.03;;;8.50;62.70;;;;;;5030360;28;20056;-84
2021/04/13 13:29:54;;;;;;;9.40;7.90;;;8.60;62.70;;;;;;5029402;28;20075;-84
2021/04/13 13:32:24;;;;;;;10.93;8.50;;;8.70;63.30;;;;;;5028837;28;20025;-84
2021/04/13 13:34:57;;;;;;;10.83;8.90;;;8.80;62.80;;;;;;5030733;28;20057;-84
2021/04/13 13:37:47;;;;;;;10.07;9.00;;;9.00;62.80;;;;;;5031129;28;20041;-84
2021/04/13 13:40:33;;;;;;;8.60;7.70;;;9.20;62.60;;;;;;5025079;28;20102;-84
2021/04/13 13:43:04;;;;;;;11.53;7.97;;;9.30;61.40;;;;;;5022057;28;20083;-84
2021/04/13 13:45:34;;;;;;;9.03;7.03;;;9.20;61.20;;;;;;5020361;28;20037;-83
2021/04/13 13:48:00;;;;;;;7.80;7.00;;;9.40;61.20;;;;;;5023121;28;20022;-84
2021/04/13 13:50:38;;;;;;;8.47;7.37;;;9.50;60.80;;;;;;5031622;28;20203;-84